createdAt,value
2017-06-27T00:02:07.700Z,16.40
2017-06-27T00:04:35.171Z,16.40
2017-06-27T00:07:07.323Z,16.50
2017-06-27T00:09:35.544Z,16.40
2017-06-27T00:12:02.997Z,16.30
2017-06-27T00:14:30.451Z,16.40
2017-06-27T00:16:57.907Z,16.50
2017-06-27T00:19:25.364Z,16.40
2017-06-27T00:21:52.821Z,16.40
2017-06-27T00:24:20.282Z,16.30
2017-06-27T00:26:47.751Z,16.20
2017-06-27T00:29:16.386Z,16.10
2017-06-27T00:31:44.617Z,16.30
2017-06-27T00:34:12.069Z,16.30
2017-06-27T00:36:39.544Z,16.20
2017-06-27T00:39:07.068Z,16.00
2017-06-27T00:41:35.061Z,16.00
2017-06-27T00:44:02.506Z,16.10
2017-06-27T00:46:30.338Z,16.10
2017-06-27T00:48:57.795Z,16.00
2017-06-27T00:51:25.238Z,16.10
2017-06-27T00:53:53.463Z,16.20
2017-06-27T00:56:20.916Z,16.20
2017-06-27T00:58:48.392Z,16.30
2017-06-27T01:01:15.854Z,16.40
2017-06-27T01:03:43.311Z,16.50
2017-06-27T01:06:10.791Z,16.50
2017-06-27T01:11:31.319Z,16.50
2017-06-27T01:13:58.780Z,16.30
2017-06-27T01:16:26.232Z,16.30
2017-06-27T01:18:53.705Z,16.40
2017-06-27T01:21:21.170Z,16.40
2017-06-27T01:23:48.609Z,16.50
2017-06-27T01:26:16.063Z,16.50
2017-06-27T01:28:43.516Z,16.70
2017-06-27T01:31:10.987Z,16.70
2017-06-27T01:33:38.773Z,16.30
2017-06-27T01:36:07.441Z,16.10
2017-06-27T01:38:34.883Z,15.90
2017-06-27T01:41:03.455Z,16.10
2017-06-27T01:43:30.898Z,16.00
2017-06-27T01:57:41.632Z,16.00
2017-06-27T02:00:09.083Z,16.10
2017-06-27T02:02:36.547Z,16.00
2017-06-27T02:05:03.999Z,16.00
2017-06-27T02:07:41.803Z,16.00
2017-06-27T02:10:09.251Z,16.10
2017-06-27T02:12:36.710Z,16.10
2017-06-27T02:15:04.163Z,16.10
2017-06-27T02:17:31.622Z,16.10
2017-06-27T02:19:59.076Z,16.10
2017-06-27T02:22:26.532Z,16.20
2017-06-27T02:24:53.971Z,16.20
2017-06-27T02:27:21.434Z,16.20
2017-06-27T02:29:48.887Z,16.20
2017-06-27T02:32:17.531Z,16.10
2017-06-27T02:34:45.615Z,16.10
2017-06-27T02:37:13.065Z,16.10
2017-06-27T02:39:40.541Z,16.10
2017-06-27T02:42:07.971Z,16.00
2017-06-27T02:44:36.046Z,16.00
2017-06-27T02:47:03.500Z,16.10
2017-06-27T02:49:30.949Z,16.20
2017-06-27T02:51:58.387Z,16.20
2017-06-27T02:54:25.858Z,16.20
2017-06-27T02:56:54.076Z,16.30
2017-06-27T02:59:21.547Z,16.30
2017-06-27T03:01:48.992Z,16.30
2017-06-27T03:04:16.458Z,16.20
2017-06-27T03:06:45.750Z,16.10
2017-06-27T03:09:13.559Z,16.00
2017-06-27T03:11:41.013Z,15.90
2017-06-27T03:14:08.820Z,16.00
2017-06-27T03:16:37.087Z,16.10
2017-06-27T03:19:04.532Z,16.00
2017-06-27T03:21:32.751Z,15.70
2017-06-27T03:24:00.199Z,15.60
2017-06-27T03:26:27.650Z,15.70
2017-06-27T03:28:55.095Z,15.80
2017-06-27T03:31:23.467Z,15.90
2017-06-27T03:33:50.902Z,15.80
2017-06-27T03:36:18.359Z,15.80
2017-06-27T03:38:45.814Z,15.70
2017-06-27T03:41:14.047Z,15.30
2017-06-27T03:43:41.495Z,15.30
2017-06-27T03:46:08.939Z,15.20
2017-06-27T03:48:36.396Z,15.20
2017-06-27T03:51:03.843Z,15.30
2017-06-27T03:53:31.303Z,15.30
2017-06-27T03:55:58.758Z,15.30
2017-06-27T03:58:26.221Z,15.30
2017-06-27T04:00:53.651Z,15.30
2017-06-27T04:03:21.876Z,15.40
2017-06-27T04:05:49.320Z,15.40
2017-06-27T04:08:16.779Z,15.50
2017-06-27T04:10:44.222Z,15.60
2017-06-27T04:13:11.682Z,15.60
2017-06-27T04:15:39.127Z,15.60
2017-06-27T04:18:06.575Z,15.60
2017-06-27T04:20:34.791Z,15.70
2017-06-27T04:23:02.237Z,15.70
2017-06-27T04:25:29.703Z,15.70
2017-06-27T04:27:57.150Z,15.80
2017-06-27T04:30:24.623Z,15.90
2017-06-27T04:32:52.063Z,16.00
2017-06-27T04:35:19.509Z,16.10
2017-06-27T04:37:46.959Z,16.20
2017-06-27T04:40:14.406Z,16.40
2017-06-27T04:42:42.482Z,16.30
2017-06-27T04:45:09.922Z,16.30
2017-06-27T04:47:37.373Z,16.40
2017-06-27T04:50:06.083Z,16.50
2017-06-27T04:52:33.543Z,16.40
2017-06-27T04:55:00.987Z,16.30
2017-06-27T04:57:29.135Z,16.20
2017-06-27T04:59:56.578Z,16.00
2017-06-27T05:02:24.403Z,16.00
2017-06-27T05:04:51.835Z,16.10
2017-06-27T05:07:19.275Z,16.20
2017-06-27T05:09:46.731Z,16.30
2017-06-27T05:12:14.167Z,16.40
2017-06-27T05:14:41.627Z,16.50
2017-06-27T05:17:09.074Z,16.50
2017-06-27T05:19:37.450Z,16.70
2017-06-27T05:22:04.891Z,16.80
2017-06-27T05:24:32.351Z,16.80
2017-06-27T05:26:59.797Z,16.70
2017-06-27T05:29:27.240Z,16.50
2017-06-27T05:31:54.699Z,16.30
2017-06-27T05:34:22.150Z,15.90
2017-06-27T05:36:49.606Z,15.80
2017-06-27T05:39:17.038Z,15.70
2017-06-27T05:41:45.261Z,15.70
2017-06-27T05:44:12.698Z,15.70
2017-06-27T05:46:40.150Z,15.70
2017-06-27T05:49:08.130Z,15.70
2017-06-27T05:51:36.476Z,15.90
2017-06-27T05:54:04.289Z,15.90
2017-06-27T05:56:31.742Z,15.90
2017-06-27T05:58:59.182Z,15.90
2017-06-27T06:01:26.683Z,15.80
2017-06-27T06:03:54.943Z,15.80
2017-06-27T06:06:22.401Z,15.70
2017-06-27T06:08:50.426Z,15.90
2017-06-27T06:11:18.626Z,16.30
2017-06-27T06:13:46.426Z,16.20
2017-06-27T06:16:14.979Z,16.50
2017-06-27T06:18:42.430Z,16.90
2017-06-27T06:21:09.938Z,17.30
2017-06-27T06:23:37.387Z,17.50
2017-06-27T06:26:05.744Z,17.70
2017-06-27T06:28:33.210Z,17.80
2017-06-27T06:31:00.671Z,18.10
2017-06-27T06:33:28.226Z,18.50
2017-06-27T06:35:55.687Z,18.30
2017-06-27T06:38:23.123Z,18.30
2017-06-27T06:40:50.577Z,18.30
2017-06-27T06:43:18.058Z,18.20
2017-06-27T06:45:45.519Z,18.10
2017-06-27T06:48:13.304Z,18.10
2017-06-27T06:50:40.739Z,18.40
2017-06-27T06:53:08.179Z,18.60
2017-06-27T06:55:35.630Z,18.80
2017-06-27T06:58:03.107Z,18.80
2017-06-27T07:00:30.563Z,18.80
2017-06-27T07:02:58.003Z,18.70
2017-06-27T07:05:25.488Z,19.00
2017-06-27T07:07:53.034Z,19.50
2017-06-27T07:10:20.475Z,19.70
2017-06-27T07:12:48.175Z,19.70
2017-06-27T07:15:15.611Z,19.80
2017-06-27T07:17:43.151Z,20.30
2017-06-27T07:20:10.591Z,20.60
2017-06-27T07:22:38.044Z,20.90
2017-06-27T07:25:05.483Z,21.20
2017-06-27T07:27:33.699Z,21.70
2017-06-27T07:30:01.171Z,21.60
2017-06-27T07:32:28.730Z,21.80
2017-06-27T07:34:56.164Z,21.90
2017-06-27T07:37:23.647Z,21.80
2017-06-27T07:39:51.750Z,21.70
2017-06-27T07:42:20.915Z,21.90
2017-06-27T07:44:48.367Z,21.80
2017-06-27T07:47:17.271Z,21.60
2017-06-27T07:49:45.348Z,21.50
2017-06-27T07:52:12.788Z,21.00
2017-06-27T07:54:40.362Z,20.70
2017-06-27T07:57:07.795Z,20.50
2017-06-27T07:59:35.512Z,20.70
2017-06-27T08:02:03.720Z,20.80
2017-06-27T08:04:31.938Z,20.70
2017-06-27T08:06:59.390Z,20.60
2017-06-27T08:09:26.853Z,20.70
2017-06-27T08:11:54.290Z,20.50
2017-06-27T08:14:21.730Z,20.40
2017-06-27T08:16:49.186Z,20.60
2017-06-27T08:19:17.422Z,20.70
2017-06-27T08:21:46.471Z,20.70
2017-06-27T08:24:13.908Z,20.70
2017-06-27T08:26:41.367Z,21.10
2017-06-27T08:29:08.821Z,21.50
2017-06-27T08:31:36.266Z,21.50
2017-06-27T08:34:03.702Z,21.40
2017-06-27T08:36:31.157Z,21.50
2017-06-27T08:39:00.182Z,21.40
2017-06-27T08:41:27.658Z,21.40
2017-06-27T08:43:55.114Z,21.80
2017-06-27T08:46:22.553Z,22.30
2017-06-27T08:48:50.005Z,22.50
2017-06-27T08:51:17.446Z,22.40
2017-06-27T08:53:46.052Z,22.90
2017-06-27T08:56:13.919Z,23.00
2017-06-27T08:58:41.347Z,22.60
2017-06-27T09:01:08.794Z,22.40
2017-06-27T09:03:36.253Z,22.10
2017-06-27T09:06:04.457Z,21.40
2017-06-27T09:08:31.899Z,21.40
2017-06-27T09:10:59.332Z,21.20
2017-06-27T09:13:27.549Z,21.30
2017-06-27T09:15:55.906Z,21.30
2017-06-27T09:18:23.342Z,21.30
2017-06-27T09:20:51.559Z,21.10
2017-06-27T09:23:19.000Z,21.10
2017-06-27T09:25:46.446Z,21.20
2017-06-27T09:28:13.900Z,21.10
2017-06-27T09:30:41.347Z,21.10
2017-06-27T09:33:09.562Z,21.30
2017-06-27T09:35:36.999Z,21.20
2017-06-27T09:38:05.292Z,21.20
2017-06-27T09:40:32.739Z,21.30
2017-06-27T09:43:00.187Z,21.40
2017-06-27T09:45:27.639Z,21.60
2017-06-27T09:47:55.083Z,21.90
2017-06-27T09:50:23.299Z,22.40
2017-06-27T09:52:50.726Z,22.40
2017-06-27T09:55:18.179Z,22.90
2017-06-27T09:57:45.623Z,22.80
2017-06-27T10:00:13.835Z,22.80
2017-06-27T10:02:41.566Z,22.80
2017-06-27T10:05:10.415Z,22.50
2017-06-27T10:07:37.858Z,22.40
2017-06-27T10:10:06.143Z,22.40
2017-06-27T10:12:33.607Z,22.60
2017-06-27T10:15:01.051Z,22.50
2017-06-27T10:17:28.498Z,22.20
2017-06-27T10:28:34.179Z,21.80
2017-06-27T10:31:01.627Z,21.80
2017-06-27T10:33:29.845Z,22.10
2017-06-27T10:35:57.279Z,22.00
2017-06-27T10:38:24.748Z,22.40
2017-06-27T10:40:52.191Z,22.40
2017-06-27T10:43:19.631Z,22.20
2017-06-27T10:45:47.093Z,21.90
2017-06-27T10:48:14.540Z,21.90
2017-06-27T10:50:42.768Z,22.20
2017-06-27T10:53:10.207Z,22.10
2017-06-27T10:55:37.657Z,22.10
2017-06-27T10:58:05.091Z,21.80
2017-06-27T11:00:32.549Z,22.00
2017-06-27T11:02:59.983Z,22.30
2017-06-27T11:05:29.207Z,22.70
2017-06-27T11:07:56.648Z,22.70
2017-06-27T11:10:24.871Z,23.00
2017-06-27T11:12:52.891Z,23.00
2017-06-27T11:15:21.095Z,23.50
2017-06-27T11:17:48.546Z,23.50
2017-06-27T11:20:15.986Z,23.90
2017-06-27T11:22:44.203Z,23.90
2017-06-27T11:25:11.650Z,23.80
2017-06-27T11:27:39.113Z,23.30
2017-06-27T11:30:06.556Z,23.30
2017-06-27T11:32:34.011Z,23.60
2017-06-27T11:35:01.448Z,23.50
2017-06-27T11:37:28.906Z,23.10
2017-06-27T11:39:56.343Z,23.00
2017-06-27T11:42:24.555Z,23.00
2017-06-27T11:44:52.002Z,23.00
2017-06-27T11:47:19.439Z,23.20
2017-06-27T11:49:47.655Z,23.80
2017-06-27T11:52:15.095Z,23.80
2017-06-27T11:54:42.548Z,24.10
2017-06-27T11:57:09.987Z,24.30
2017-06-27T11:59:38.202Z,24.10
2017-06-27T12:02:10.394Z,24.00
2017-06-27T12:04:37.846Z,24.20
2017-06-27T12:07:16.967Z,24.50
2017-06-27T12:09:44.411Z,24.70
2017-06-27T12:12:11.862Z,25.00
2017-06-27T12:14:39.323Z,25.40
2017-06-27T12:17:06.755Z,25.70
2017-06-27T12:19:34.203Z,26.10
2017-06-27T12:22:02.411Z,25.90
2017-06-27T12:24:29.851Z,25.90
2017-06-27T12:26:57.303Z,26.00
2017-06-27T12:29:24.743Z,25.90
2017-06-27T12:31:52.967Z,25.70
2017-06-27T12:34:20.413Z,25.70
2017-06-27T12:36:47.864Z,25.90
2017-06-27T12:39:15.304Z,25.90
2017-06-27T12:41:42.756Z,25.70
2017-06-27T12:44:10.199Z,26.00
2017-06-27T12:46:38.425Z,26.10
2017-06-27T12:49:05.851Z,26.10
2017-06-27T12:51:33.298Z,25.70
2017-06-27T12:54:00.740Z,25.40
2017-06-27T12:56:28.213Z,25.10
2017-06-27T12:58:56.420Z,25.80
2017-06-27T13:01:23.859Z,25.80
2017-06-27T13:03:51.307Z,26.40
2017-06-27T13:06:18.747Z,26.10
2017-06-27T13:08:46.959Z,26.20
2017-06-27T13:11:14.408Z,26.20
2017-06-27T13:13:41.855Z,26.30
2017-06-27T13:16:09.295Z,26.40
2017-06-27T13:18:37.510Z,25.90
2017-06-27T13:21:04.951Z,25.90
2017-06-27T13:23:32.403Z,26.00
2017-06-27T13:25:59.858Z,26.40
2017-06-27T13:28:28.189Z,26.30
2017-06-27T13:30:55.623Z,26.60
2017-06-27T13:33:23.090Z,27.00
2017-06-27T13:35:50.531Z,26.90
2017-06-27T13:38:17.979Z,26.90
2017-06-27T13:40:45.436Z,26.80
2017-06-27T13:43:12.885Z,26.00
2017-06-27T13:45:40.323Z,25.80
2017-06-27T13:48:07.767Z,25.30
2017-06-27T13:53:10.003Z,25.10
2017-06-27T13:55:37.461Z,25.70
2017-06-27T13:58:04.895Z,25.60
2017-06-27T14:00:32.366Z,25.40
2017-06-27T14:02:59.802Z,25.80
2017-06-27T14:05:27.243Z,26.30
2017-06-27T14:07:54.701Z,26.30
2017-06-27T14:10:22.907Z,25.80
2017-06-27T14:12:50.370Z,25.70
2017-06-27T14:15:17.802Z,25.90
2017-06-27T14:17:45.252Z,26.30
2017-06-27T14:20:12.696Z,25.80
2017-06-27T14:22:40.919Z,25.40
2017-06-27T14:25:08.367Z,25.40
2017-06-27T14:27:35.830Z,25.80
2017-06-27T14:30:03.279Z,25.70
2017-06-27T14:32:30.743Z,25.20
2017-06-27T14:34:58.183Z,24.90
2017-06-27T14:37:25.623Z,24.90
2017-06-27T14:39:53.071Z,24.60
2017-06-27T14:42:21.279Z,24.60
2017-06-27T14:44:48.731Z,24.60
2017-06-27T14:47:16.195Z,24.50
2017-06-27T14:49:43.635Z,24.30
2017-06-27T14:52:11.078Z,24.20
2017-06-27T14:54:38.531Z,24.20
2017-06-27T14:57:06.738Z,24.70
2017-06-27T14:59:34.196Z,24.70
2017-06-27T15:02:01.635Z,24.70
2017-06-27T15:04:29.087Z,24.60
2017-06-27T15:06:56.527Z,24.80
2017-06-27T15:09:24.746Z,25.30
2017-06-27T15:11:52.197Z,25.30
2017-06-27T15:14:19.638Z,25.10
2017-06-27T15:16:47.086Z,25.00
2017-06-27T15:19:14.536Z,24.70
2017-06-27T15:21:41.987Z,24.70
2017-06-27T15:24:10.195Z,24.40
2017-06-27T15:26:37.639Z,24.40
2017-06-27T15:29:05.075Z,24.20
2017-06-27T15:31:33.291Z,23.80
2017-06-27T15:34:00.742Z,23.80
2017-06-27T15:36:28.176Z,23.50
2017-06-27T15:38:55.628Z,23.50
2017-06-27T15:41:23.069Z,23.60
2017-06-27T15:43:51.288Z,23.60
2017-06-27T15:46:18.727Z,23.60
2017-06-27T15:48:46.186Z,23.60
2017-06-27T15:51:13.638Z,23.60
2017-06-27T15:53:41.098Z,23.70
2017-06-27T15:56:08.538Z,23.60
2017-06-27T15:58:36.751Z,23.40
2017-06-27T16:01:04.203Z,23.40
2017-06-27T16:03:31.671Z,23.30
2017-06-27T16:06:00.104Z,23.20
2017-06-27T16:08:28.310Z,23.00
2017-06-27T16:10:55.760Z,23.00
2017-06-27T16:13:23.200Z,23.10
2017-06-27T16:15:51.416Z,23.20
2017-06-27T16:18:18.850Z,23.20
2017-06-27T16:20:46.303Z,23.30
2017-06-27T16:23:13.743Z,23.20
2017-06-27T16:25:41.203Z,23.10
2017-06-27T16:28:08.644Z,23.00
2017-06-27T16:30:36.868Z,22.80
2017-06-27T16:33:04.312Z,22.80
2017-06-27T16:35:31.781Z,22.80
2017-06-27T16:37:59.291Z,22.80
2017-06-27T16:40:27.507Z,22.60
2017-06-27T16:42:54.956Z,22.60
2017-06-27T16:45:22.411Z,22.60
2017-06-27T16:47:49.853Z,22.60
2017-06-27T16:50:17.295Z,22.60
2017-06-27T16:52:45.508Z,22.50
2017-06-27T16:55:12.955Z,22.50
2017-06-27T16:57:40.421Z,22.50
2017-06-27T17:00:07.859Z,22.50
2017-06-27T17:02:35.311Z,22.40
2017-06-27T17:05:02.797Z,22.40
2017-06-27T17:07:30.230Z,22.40
2017-06-27T17:09:57.674Z,22.50
2017-06-27T17:12:25.107Z,22.40
2017-06-27T17:14:52.554Z,22.40
2017-06-27T17:17:20.080Z,22.40
2017-06-27T17:19:47.519Z,22.40
2017-06-27T17:22:14.960Z,22.40
2017-06-27T17:24:42.467Z,22.50
2017-06-27T17:27:09.908Z,22.60
2017-06-27T17:29:37.367Z,22.70
2017-06-27T17:32:04.812Z,22.60
2017-06-27T17:34:32.264Z,22.40
2017-06-27T17:36:59.694Z,22.30
2017-06-27T17:39:27.920Z,22.20
2017-06-27T17:41:55.367Z,22.10
2017-06-27T17:44:22.843Z,22.30
2017-06-27T17:46:50.295Z,22.30
2017-06-27T17:49:17.735Z,22.30
2017-06-27T17:51:45.183Z,22.40
2017-06-27T17:54:12.619Z,22.50
2017-06-27T17:56:40.080Z,22.40
2017-06-27T17:59:07.520Z,22.30
2017-06-27T18:01:34.971Z,22.20
2017-06-27T18:04:02.411Z,22.20
2017-06-27T18:06:29.862Z,22.00
2017-06-27T18:08:57.299Z,21.90
2017-06-27T18:11:24.751Z,21.80
2017-06-27T18:13:52.192Z,21.80
2017-06-27T18:16:19.675Z,21.70
2017-06-27T18:18:47.123Z,21.50
2017-06-27T18:21:14.555Z,21.50
2017-06-27T18:23:42.006Z,21.50
2017-06-27T18:26:10.272Z,21.40
2017-06-27T18:28:37.783Z,21.40
2017-06-27T18:31:05.232Z,21.40
2017-06-27T18:33:32.686Z,21.30
2017-06-27T18:36:00.124Z,21.30
2017-06-27T18:38:27.580Z,21.30
2017-06-27T18:40:55.019Z,21.30
2017-06-27T18:43:22.455Z,21.40
2017-06-27T18:45:49.903Z,21.50
2017-06-27T18:48:17.343Z,21.40
2017-06-27T18:50:44.796Z,21.40
2017-06-27T18:53:12.235Z,21.40
2017-06-27T18:55:39.698Z,21.40
2017-06-27T18:58:07.139Z,21.40
2017-06-27T19:00:34.592Z,21.30
2017-06-27T19:03:02.064Z,21.20
2017-06-27T19:05:29.743Z,21.10
2017-06-27T19:07:57.183Z,21.00
2017-06-27T19:10:24.635Z,21.00
2017-06-27T19:12:52.103Z,20.80
2017-06-27T19:15:19.546Z,20.80
2017-06-27T19:17:47.002Z,20.80
2017-06-27T19:20:14.444Z,20.70
2017-06-27T19:22:41.891Z,20.60
2017-06-27T19:25:09.331Z,20.60
2017-06-27T19:27:37.547Z,20.50
2017-06-27T19:30:04.995Z,20.50
2017-06-27T19:32:32.482Z,20.40
2017-06-27T19:34:59.901Z,20.30
2017-06-27T19:37:27.351Z,20.30
2017-06-27T19:39:54.798Z,20.20
2017-06-27T19:42:23.001Z,20.00
2017-06-27T19:44:50.458Z,20.00
2017-06-27T19:47:17.896Z,20.00
2017-06-27T19:49:45.344Z,19.80
2017-06-27T19:52:13.546Z,19.60
2017-06-27T19:54:40.995Z,19.50
2017-06-27T19:57:08.439Z,19.50
2017-06-27T19:59:35.900Z,19.50
2017-06-27T20:02:03.332Z,19.60
2017-06-27T20:04:31.552Z,19.60
2017-06-27T20:06:58.991Z,19.60
2017-06-27T20:09:26.445Z,19.50
2017-06-27T20:11:53.891Z,19.50
2017-06-27T20:14:21.327Z,19.50
2017-06-27T20:16:48.778Z,19.60
2017-06-27T20:19:16.219Z,19.60
2017-06-27T20:21:43.679Z,19.60
2017-06-27T20:24:11.132Z,19.60
2017-06-27T20:26:38.584Z,19.60
2017-06-27T20:29:06.019Z,19.60
2017-06-27T20:31:33.475Z,19.60
2017-06-27T20:34:00.936Z,19.50
2017-06-27T20:36:28.390Z,19.50
2017-06-27T20:38:55.828Z,19.30
2017-06-27T20:41:23.289Z,19.10
2017-06-27T20:43:50.727Z,19.00
2017-06-27T20:46:18.939Z,18.90
2017-06-27T20:48:46.399Z,18.90
2017-06-27T20:51:13.848Z,18.90
2017-06-27T20:53:41.305Z,18.90
2017-06-27T20:56:08.746Z,18.90
2017-06-27T20:58:36.199Z,18.90
2017-06-27T21:01:03.638Z,19.00
2017-06-27T21:03:31.893Z,19.00
2017-06-27T21:05:59.306Z,18.90
2017-06-27T21:08:26.781Z,18.90
2017-06-27T21:10:54.211Z,18.80
2017-06-27T21:13:21.647Z,18.70
2017-06-27T21:15:49.112Z,18.60
2017-06-27T21:18:16.538Z,18.50
2017-06-27T21:20:43.987Z,18.50
2017-06-27T21:23:11.436Z,18.50
2017-06-27T21:25:38.888Z,18.40
2017-06-27T21:28:06.324Z,18.40
2017-06-27T21:30:33.773Z,18.40
2017-06-27T21:33:01.215Z,18.40
2017-06-27T21:35:28.671Z,18.30
2017-06-27T21:37:56.112Z,18.30
2017-06-27T21:40:24.338Z,18.30
2017-06-27T21:42:51.779Z,18.30
2017-06-27T21:45:19.223Z,18.30
2017-06-27T21:47:46.689Z,18.40
2017-06-27T21:50:14.127Z,18.50
2017-06-27T21:52:41.575Z,18.60
2017-06-27T21:55:09.011Z,18.60
2017-06-27T21:57:36.471Z,18.70
2017-06-27T22:00:04.685Z,18.60
2017-06-27T22:02:32.143Z,18.70
2017-06-27T22:04:59.575Z,18.70
2017-06-27T22:07:27.024Z,18.70
2017-06-27T22:09:55.231Z,18.80
2017-06-27T22:12:22.708Z,18.70
2017-06-27T22:14:50.148Z,18.70
2017-06-27T22:17:17.587Z,18.80
2017-06-27T22:19:45.037Z,18.80
2017-06-27T22:22:12.471Z,18.90
2017-06-27T22:24:39.932Z,18.90
2017-06-27T22:27:08.152Z,18.90
2017-06-27T22:29:35.607Z,18.90
2017-06-27T22:32:03.047Z,18.90
2017-06-27T22:34:30.495Z,18.90
2017-06-27T22:36:57.935Z,18.80
2017-06-27T22:39:26.156Z,18.60
2017-06-27T22:41:53.595Z,18.60
2017-06-27T22:44:21.068Z,18.60
2017-06-27T22:46:48.525Z,18.80
2017-06-27T22:49:15.959Z,19.00
2017-06-27T22:51:43.408Z,18.90
2017-06-27T22:54:10.852Z,19.00
2017-06-27T22:56:39.067Z,18.90
2017-06-27T22:59:06.515Z,18.90
2017-06-27T23:01:33.986Z,18.80
2017-06-27T23:04:01.425Z,18.80
2017-06-27T23:06:28.867Z,18.80
2017-06-27T23:08:56.311Z,18.80
2017-06-27T23:11:24.531Z,18.70
2017-06-27T23:13:51.992Z,18.70
2017-06-27T23:16:19.451Z,18.60
2017-06-27T23:18:46.901Z,18.60
2017-06-27T23:21:14.364Z,18.50
2017-06-27T23:23:41.812Z,18.40
2017-06-27T23:26:09.247Z,18.40
2017-06-27T23:28:36.711Z,18.40
2017-06-27T23:31:04.155Z,18.40
2017-06-27T23:33:31.603Z,18.30
2017-06-27T23:35:59.803Z,18.30
2017-06-27T23:38:27.251Z,18.30
2017-06-27T23:40:54.695Z,18.30
2017-06-27T23:43:22.914Z,18.30
2017-06-27T23:45:50.365Z,18.20
2017-06-27T23:48:17.816Z,18.30
2017-06-27T23:50:45.255Z,18.20
2017-06-27T23:53:12.699Z,18.00
2017-06-27T23:55:40.156Z,17.90
2017-06-27T23:58:08.364Z,17.90
